Time;durP1;ratioP1;P1;durP2;ratioP2;P2;SDS_P1;SDS_P2;PMS_P1;PMS_P2;Temp;Humidity;BMP_temperature;BMP_pressure;BME280_temperature;BME280_humidity;BME280_pressure;Samples;Min_cycle;Max_cycle;Signal;HPM_P1;HPM_P2
2022/02/05 00:00:34;;;;;;;7.03;2.00;;;3.70;99.90;;;;;;5030502;28;20479;-62
2022/02/05 00:03:13;;;;;;;6.07;1.77;;;3.70;99.90;;;;;;5038866;28;20477;-61
2022/02/05 00:05:46;;;;;;;7.50;1.43;;;3.70;99.90;;;;;;5066567;28;20485;-62
2022/02/05 00:11:21;;;;;;;6.40;1.10;;;3.70;99.90;;;;;;5009509;28;20875;-62
2022/02/05 00:39:22;;;;;;;4.10;1.00;;;3.70;99.90;;;;;;5055046;28;20902;-62
2022/02/05 00:41:54;;;;;;;4.07;1.00;;;3.80;99.90;;;;;;5049737;28;20530;-62
2022/02/05 00:44:22;;;;;;;3.27;1.03;;;3.80;99.90;;;;;;5049613;28;20484;-62
2022/02/05 00:46:51;;;;;;;4.73;0.87;;;3.80;99.90;;;;;;5049627;28;20997;-61
2022/02/05 00:49:21;;;;;;;3.90;1.00;;;3.80;99.90;;;;;;5049790;28;20470;-62
2022/02/05 00:51:54;;;;;;;4.70;1.83;;;3.70;99.90;;;;;;5049641;28;20484;-62
2022/02/05 00:54:25;;;;;;;4.47;0.90;;;3.80;99.90;;;;;;5041674;28;20966;-62
2022/02/05 00:57:30;;;;;;;6.50;1.30;;;3.70;99.90;;;;;;5032354;28;20478;-62
2022/02/05 00:59:58;;;;;;;3.47;0.83;;;3.70;99.90;;;;;;5029850;28;20562;-62
2022/02/05 01:02:26;;;;;;;3.80;0.93;;;3.60;99.90;;;;;;5034371;28;20482;-61
2022/02/05 01:04:56;;;;;;;3.13;1.00;;;3.60;99.90;;;;;;5053674;28;21023;-62
2022/02/05 01:07:24;;;;;;;5.73;1.07;;;3.60;99.90;;;;;;5052807;28;20492;-62
2022/02/05 01:09:52;;;;;;;2.27;0.80;;;3.60;99.90;;;;;;5053513;28;20472;-62
2022/02/05 01:12:20;;;;;;;2.93;0.90;;;3.50;99.90;;;;;;5050637;28;21001;-62
2022/02/05 01:14:52;;;;;;;3.60;1.07;;;3.50;99.90;;;;;;5033271;28;20828;-62
2022/02/05 01:17:27;;;;;;;6.30;1.70;;;3.50;99.90;;;;;;5033284;28;21002;-62
2022/02/05 01:23:00;;;;;;;4.17;1.10;;;3.60;99.90;;;;;;5040766;28;20473;-62
2022/02/05 01:25:34;;;;;;;4.33;1.77;;;3.70;99.90;;;;;;5034119;28;20506;-62
2022/02/05 01:28:09;;;;;;;3.07;1.23;;;3.70;99.90;;;;;;5033671;28;20481;-62
2022/02/05 01:30:41;;;;;;;5.33;1.30;;;3.70;99.90;;;;;;5033260;28;20961;-62
2022/02/05 01:33:25;;;;;;;7.73;1.57;;;3.70;99.90;;;;;;5042869;28;20485;-61
2022/02/05 01:36:11;;;;;;;7.13;1.60;;;3.60;99.90;;;;;;5052830;28;20474;-62
2022/02/05 01:53:00;;;;;;;4.17;1.33;;;3.80;99.90;;;;;;5030523;28;20525;-62
2022/02/05 01:55:36;;;;;;;5.57;1.30;;;3.70;99.90;;;;;;5033597;28;20568;-61
2022/02/05 01:58:18;;;;;;;8.47;1.80;;;3.70;99.90;;;;;;5032678;28;20466;-62
2022/02/05 02:06:30;;;;;;;10.13;1.90;;;3.70;99.90;;;;;;5017017;28;20510;-62
2022/02/05 02:11:48;;;;;;;6.63;1.90;;;3.70;99.90;;;;;;5027555;28;20532;-62
2022/02/05 02:17:33;;;;;;;5.37;1.90;;;3.60;99.90;;;;;;5031913;28;20829;-62
2022/02/05 02:20:20;;;;;;;6.73;2.53;;;3.70;99.90;;;;;;5052049;28;20482;-61
2022/02/05 02:23:03;;;;;;;6.43;2.23;;;3.70;99.90;;;;;;5042936;28;20566;-61
2022/02/05 02:25:45;;;;;;;8.97;2.40;;;3.70;99.90;;;;;;5051170;28;20483;-61
2022/02/05 02:28:20;;;;;;;9.17;2.30;;;3.80;99.90;;;;;;5041388;28;20484;-62
2022/02/05 02:30:58;;;;;;;7.63;2.40;;;3.80;99.90;;;;;;5031790;28;20478;-62
2022/02/05 02:33:31;;;;;;;10.23;2.40;;;3.70;99.90;;;;;;5043583;28;21012;-62
2022/02/05 02:35:59;;;;;;;8.17;2.30;;;3.80;99.90;;;;;;5051786;28;20536;-62
2022/02/05 02:38:37;;;;;;;8.93;2.13;;;3.80;99.90;;;;;;5051580;28;20480;-62
2022/02/05 02:41:12;;;;;;;4.87;1.80;;;3.80;99.90;;;;;;5051737;28;20508;-62
2022/02/05 02:43:41;;;;;;;5.60;1.63;;;3.70;99.90;;;;;;5051469;28;20535;-62
2022/02/05 02:46:09;;;;;;;4.83;1.60;;;3.70;99.90;;;;;;5051851;28;20460;-62
2022/02/05 02:48:42;;;;;;;9.23;1.70;;;3.70;99.90;;;;;;5037753;28;20521;-62
2022/02/05 02:56:52;;;;;;;2.37;0.90;;;3.50;99.90;;;;;;5018892;28;20523;-61
2022/02/05 02:59:27;;;;;;;5.90;1.00;;;3.50;99.90;;;;;;5031954;28;20529;-62
2022/02/05 03:02:07;;;;;;;3.57;0.77;;;3.50;99.90;;;;;;5037264;28;20466;-62
2022/02/05 03:04:36;;;;;;;2.53;0.60;;;3.40;99.90;;;;;;5051267;28;20511;-61
2022/02/05 03:07:04;;;;;;;4.77;1.07;;;3.40;99.90;;;;;;5050253;28;20469;-61
2022/02/05 03:09:34;;;;;;;2.40;0.70;;;3.40;99.90;;;;;;5031224;28;20482;-61
2022/02/05 03:12:02;;;;;;;2.73;0.60;;;3.30;99.90;;;;;;5031522;28;20488;-62
2022/02/05 03:14:31;;;;;;;6.17;1.07;;;3.30;99.90;;;;;;5051038;28;20470;-61
2022/02/05 03:17:04;;;;;;;1.50;0.70;;;3.30;99.90;;;;;;5051124;28;20459;-62
2022/02/05 03:19:34;;;;;;;2.63;0.50;;;3.30;99.90;;;;;;5041333;28;20530;-61
2022/02/05 03:22:02;;;;;;;2.90;0.70;;;3.30;99.90;;;;;;5047186;28;20476;-62
2022/02/05 03:24:30;;;;;;;4.83;0.80;;;3.30;99.90;;;;;;5050555;28;20560;-61
2022/02/05 03:27:00;;;;;;;2.67;0.70;;;3.30;99.90;;;;;;5050857;28;21020;-61
2022/02/05 03:29:28;;;;;;;2.90;0.90;;;3.20;99.90;;;;;;5030748;28;20559;-62
2022/02/05 03:31:56;;;;;;;3.33;1.03;;;3.20;99.90;;;;;;5030940;28;20530;-61
2022/02/05 03:34:24;;;;;;;4.00;0.90;;;3.20;99.90;;;;;;5030741;28;20488;-62
2022/02/05 03:36:52;;;;;;;5.60;1.00;;;3.30;99.90;;;;;;5030881;28;20819;-62
2022/02/05 03:39:20;;;;;;;3.17;1.13;;;3.40;99.90;;;;;;5049929;28;20891;-62
2022/02/05 03:41:48;;;;;;;4.53;1.23;;;3.30;99.90;;;;;;5050424;28;20478;-62
2022/02/05 03:44:18;;;;;;;3.27;1.80;;;3.30;99.90;;;;;;5032317;28;20598;-62
2022/02/05 03:46:48;;;;;;;7.33;1.10;;;3.30;99.90;;;;;;5030805;28;20564;-62
2022/02/05 03:49:17;;;;;;;6.47;1.33;;;3.30;99.90;;;;;;5047858;28;20542;-62
2022/02/05 03:51:46;;;;;;;4.43;1.40;;;3.30;99.90;;;;;;5037568;28;20459;-62
2022/02/05 03:54:18;;;;;;;3.03;1.30;;;3.20;99.90;;;;;;5049135;28;20471;-62
2022/02/05 03:56:46;;;;;;;5.43;1.20;;;3.00;99.90;;;;;;5050524;28;20471;-62
2022/02/05 03:59:15;;;;;;;3.20;1.30;;;3.00;99.90;;;;;;5046064;28;20462;-62
2022/02/05 04:01:44;;;;;;;6.90;1.57;;;3.30;99.90;;;;;;5046489;28;20573;-62
2022/02/05 04:04:13;;;;;;;6.07;1.50;;;3.20;99.90;;;;;;5046492;28;20472;-62
2022/02/05 04:06:41;;;;;;;6.30;1.57;;;3.20;99.90;;;;;;5050192;28;20458;-62
2022/02/05 04:09:17;;;;;;;2.43;1.40;;;3.10;99.90;;;;;;5032200;28;20475;-62
2022/02/05 04:17:20;;;;;;;7.03;1.57;;;3.10;99.90;;;;;;5014548;28;20908;-62
2022/02/05 04:19:48;;;;;;;7.37;1.60;;;3.30;99.90;;;;;;5038309;28;20471;-62
2022/02/05 04:22:16;;;;;;;9.90;1.90;;;3.30;99.90;;;;;;5043967;28;20550;-62
2022/02/05 04:24:44;;;;;;;8.23;1.90;;;3.30;99.90;;;;;;5049959;28;20974;-62
2022/02/05 04:27:13;;;;;;;6.63;1.50;;;3.40;99.90;;;;;;5049906;28;20462;-62
2022/02/05 04:29:41;;;;;;;9.10;1.97;;;3.50;99.90;;;;;;5029925;28;20462;-62
2022/02/05 04:32:13;;;;;;;6.80;1.87;;;3.50;99.90;;;;;;5030164;28;20488;-62
2022/02/05 04:34:43;;;;;;;11.63;2.47;;;3.50;99.90;;;;;;5030145;28;20530;-62
2022/02/05 04:37:11;;;;;;;3.27;1.37;;;3.40;99.90;;;;;;5032442;28;20556;-62
2022/02/05 04:39:46;;;;;;;7.70;1.60;;;3.40;99.90;;;;;;5053802;28;20452;-62
2022/02/05 04:42:20;;;;;;;4.67;1.30;;;3.30;99.90;;;;;;5054003;28;20525;-62
2022/02/05 04:45:16;;;;;;;5.60;1.40;;;3.30;99.90;;;;;;5053505;28;20493;-62
2022/02/05 04:48:05;;;;;;;9.10;1.43;;;3.40;99.90;;;;;;5051551;28;20502;-62
2022/02/05 04:51:04;;;;;;;5.77;1.50;;;3.30;99.90;;;;;;5042131;28;20911;-62
2022/02/05 04:53:42;;;;;;;7.00;1.30;;;3.30;99.90;;;;;;5057941;28;20509;-62
2022/02/05 04:56:24;;;;;;;6.80;1.10;;;3.20;99.90;;;;;;5073834;28;20562;-62
2022/02/05 04:59:15;;;;;;;8.10;1.67;;;3.20;99.90;;;;;;5055286;28;20828;-61
2022/02/05 05:02:06;;;;;;;3.47;1.17;;;3.10;99.90;;;;;;5053702;28;20863;-62
2022/02/05 05:04:39;;;;;;;5.20;1.00;;;3.10;99.90;;;;;;5033492;28;20483;-62
2022/02/05 05:10:01;;;;;;;4.93;1.30;;;3.10;99.90;;;;;;5032154;28;20481;-62
2022/02/05 05:12:37;;;;;;;8.57;1.67;;;3.00;99.90;;;;;;5033376;28;20475;-61
2022/02/05 05:20:40;;;;;;;5.13;1.27;;;2.90;99.90;;;;;;5045078;28;20917;-62
2022/02/05 05:23:10;;;;;;;6.07;1.47;;;2.90;99.90;;;;;;5049811;28;20460;-62
2022/02/05 05:25:38;;;;;;;8.23;1.60;;;3.00;99.90;;;;;;5053073;28;20552;-62
2022/02/05 05:28:06;;;;;;;5.00;1.40;;;3.00;99.90;;;;;;5043752;28;20475;-62
2022/02/05 05:30:34;;;;;;;7.07;1.73;;;3.00;99.90;;;;;;5032972;28;20484;-61
2022/02/05 05:33:02;;;;;;;6.87;1.77;;;3.00;99.90;;;;;;5033341;28;20994;-62
2022/02/05 05:35:30;;;;;;;7.50;1.33;;;3.00;99.90;;;;;;5032891;28;20825;-62
2022/02/05 05:37:58;;;;;;;7.47;1.93;;;3.00;99.90;;;;;;5040878;28;20480;-62
2022/02/05 05:40:28;;;;;;;4.20;1.00;;;3.00;99.90;;;;;;5052750;28;20566;-61
2022/02/05 05:43:01;;;;;;;7.47;1.90;;;3.00;99.90;;;;;;5045231;28;20476;-62
2022/02/05 05:45:50;;;;;;;6.17;1.50;;;3.00;99.90;;;;;;5032888;28;20518;-61
2022/02/05 05:48:28;;;;;;;11.63;1.70;;;2.90;99.90;;;;;;5040899;28;20982;-61
2022/02/05 05:50:59;;;;;;;5.40;1.57;;;2.90;99.90;;;;;;5040892;28;20523;-62
2022/02/05 05:53:28;;;;;;;7.60;1.37;;;2.90;99.90;;;;;;5040506;28;20569;-62
2022/02/05 05:56:01;;;;;;;9.93;1.43;;;2.90;99.90;;;;;;5042194;28;20491;-62
2022/02/05 05:58:29;;;;;;;9.50;1.70;;;2.90;99.90;;;;;;5041040;28;20822;-62
2022/02/05 06:01:03;;;;;;;5.23;1.10;;;2.90;99.90;;;;;;5041228;28;20475;-62
2022/02/05 06:03:32;;;;;;;7.17;1.57;;;2.90;99.90;;;;;;5041149;28;20465;-62
2022/02/05 06:06:00;;;;;;;10.10;1.90;;;2.90;99.90;;;;;;5041304;28;20844;-62
2022/02/05 06:08:28;;;;;;;5.23;1.30;;;2.90;99.90;;;;;;5042464;28;20559;-62
2022/02/05 06:10:58;;;;;;;5.37;1.33;;;2.90;99.90;;;;;;5043667;28;21000;-62
2022/02/05 06:13:27;;;;;;;7.00;1.27;;;2.80;99.90;;;;;;5040478;28;20469;-62
2022/02/05 06:15:57;;;;;;;6.90;1.40;;;2.80;99.90;;;;;;5032216;28;20479;-62
2022/02/05 06:18:25;;;;;;;5.43;1.43;;;2.80;99.90;;;;;;5037606;28;20558;-60
2022/02/05 06:20:54;;;;;;;6.20;1.43;;;2.80;99.90;;;;;;5038005;28;20506;-62
2022/02/05 06:23:22;;;;;;;6.07;1.20;;;2.80;99.90;;;;;;5040646;28;20466;-62
2022/02/05 06:25:50;;;;;;;10.83;1.70;;;2.80;99.90;;;;;;5043366;28;20482;-61
2022/02/05 06:28:19;;;;;;;11.30;1.43;;;2.80;99.90;;;;;;5041031;28;20532;-61
2022/02/05 06:30:48;;;;;;;6.57;1.30;;;2.80;99.90;;;;;;5041550;28;20474;-61
2022/02/05 06:33:16;;;;;;;4.77;1.20;;;2.80;99.90;;;;;;5042853;28;20487;-61
2022/02/05 06:35:44;;;;;;;7.93;1.30;;;2.80;99.90;;;;;;5040898;28;20484;-62
2022/02/05 06:38:13;;;;;;;9.13;1.27;;;2.80;99.90;;;;;;5041046;28;20544;-62
2022/02/05 06:40:41;;;;;;;7.87;1.20;;;2.80;99.90;;;;;;5042269;28;20444;-62
2022/02/05 06:43:12;;;;;;;7.13;1.33;;;2.90;99.90;;;;;;5041515;28;20463;-62
2022/02/05 06:45:41;;;;;;;6.83;1.50;;;2.80;99.90;;;;;;5037303;28;20457;-62
2022/02/05 06:48:10;;;;;;;7.70;1.50;;;2.80;99.90;;;;;;5032425;28;20483;-62
2022/02/05 06:50:38;;;;;;;7.67;1.37;;;2.90;99.90;;;;;;5043378;28;20471;-61
2022/02/05 06:53:06;;;;;;;7.53;1.47;;;2.80;99.90;;;;;;5042799;28;20468;-62
2022/02/05 06:55:35;;;;;;;11.63;1.77;;;2.90;99.90;;;;;;5031522;28;20554;-61
2022/02/05 06:58:03;;;;;;;9.83;1.97;;;2.90;99.90;;;;;;5031494;28;20487;-62
2022/02/05 07:00:31;;;;;;;11.67;1.60;;;2.90;99.90;;;;;;5034377;28;20841;-61
2022/02/05 07:03:01;;;;;;;7.93;1.80;;;2.90;99.90;;;;;;5048193;28;20460;-62
2022/02/05 07:05:29;;;;;;;7.43;1.53;;;3.00;99.90;;;;;;5041052;28;20498;-61
2022/02/05 07:07:57;;;;;;;7.40;2.20;;;3.00;99.90;;;;;;5039791;28;20476;-62
2022/02/05 07:10:25;;;;;;;9.47;1.77;;;3.10;99.90;;;;;;5031153;28;20479;-61
2022/02/05 07:13:12;;;;;;;12.27;2.17;;;3.10;99.90;;;;;;5031365;28;20483;-62
2022/02/05 07:15:46;;;;;;;7.33;1.60;;;3.00;99.90;;;;;;5030948;28;20567;-62
2022/02/05 07:18:23;;;;;;;6.90;1.30;;;2.90;99.90;;;;;;5036490;28;20560;-62
2022/02/05 07:20:55;;;;;;;8.53;1.70;;;2.80;99.90;;;;;;5041171;28;20502;-62
2022/02/05 07:31:40;;;;;;;7.03;1.83;;;2.70;99.90;;;;;;5039330;28;20522;-61
2022/02/05 07:34:11;;;;;;;6.93;1.70;;;2.80;99.90;;;;;;5043894;28;20461;-62
2022/02/05 07:36:40;;;;;;;6.20;2.10;;;2.70;99.90;;;;;;5050643;28;20498;-62
2022/02/05 07:39:10;;;;;;;9.27;1.87;;;2.80;99.90;;;;;;5033213;28;20949;-62
2022/02/05 07:41:40;;;;;;;13.53;2.50;;;3.00;99.90;;;;;;5033377;28;20799;-62
2022/02/05 07:44:11;;;;;;;9.40;2.10;;;3.00;99.90;;;;;;5030723;28;20467;-62
2022/02/05 07:46:42;;;;;;;8.37;1.80;;;3.10;99.90;;;;;;5030684;28;20491;-61
2022/02/05 07:49:13;;;;;;;11.67;2.10;;;3.20;99.90;;;;;;5039422;28;20983;-61
2022/02/05 07:51:41;;;;;;;15.23;2.60;;;3.20;99.90;;;;;;5038131;28;20996;-61
2022/02/05 07:54:11;;;;;;;12.17;2.20;;;3.30;99.90;;;;;;5035769;28;20541;-62
2022/02/05 07:56:41;;;;;;;8.63;1.80;;;3.20;99.90;;;;;;5030695;28;20476;-62
2022/02/05 07:59:10;;;;;;;14.30;2.33;;;3.20;99.90;;;;;;5030497;28;20467;-62
2022/02/05 08:01:38;;;;;;;9.53;2.07;;;3.20;99.90;;;;;;5030325;28;20469;-62
2022/02/05 08:04:07;;;;;;;13.87;2.37;;;3.10;99.90;;;;;;5040158;28;20512;-62
2022/02/05 08:06:37;;;;;;;14.80;2.47;;;3.20;99.90;;;;;;5038852;28;20475;-61
2022/02/05 08:09:15;;;;;;;13.27;2.37;;;3.20;99.90;;;;;;5047215;28;21001;-62
2022/02/05 08:11:47;;;;;;;14.30;2.40;;;3.20;99.90;;;;;;5047183;28;21077;-62
2022/02/05 08:14:16;;;;;;;9.47;1.80;;;3.30;99.90;;;;;;5039735;28;20493;-62
2022/02/05 08:16:59;;;;;;;12.40;2.50;;;3.30;99.90;;;;;;5048031;28;20990;-62
2022/02/05 08:19:27;;;;;;;14.00;3.40;;;3.30;99.90;;;;;;5041642;28;20487;-62
2022/02/05 08:22:18;;;;;;;19.83;2.50;;;3.40;99.90;;;;;;5045690;28;20982;-62
2022/02/05 08:24:46;;;;;;;13.50;2.63;;;3.50;99.90;;;;;;5050273;28;20850;-62
2022/02/05 08:27:15;;;;;;;8.87;2.07;;;3.50;99.90;;;;;;5048059;28;20473;-62
2022/02/05 08:29:53;;;;;;;13.63;2.80;;;3.50;99.90;;;;;;5030333;28;21664;-62
2022/02/05 08:32:25;;;;;;;13.43;2.43;;;3.50;99.90;;;;;;5041669;28;20491;-62
2022/02/05 08:34:53;;;;;;;10.67;2.03;;;3.60;99.90;;;;;;5030343;28;20514;-62
2022/02/05 08:37:23;;;;;;;11.00;2.30;;;3.60;99.90;;;;;;5036257;28;20474;-61
2022/02/05 08:39:51;;;;;;;9.93;2.33;;;3.70;99.90;;;;;;5044489;28;20469;-60
2022/02/05 08:42:19;;;;;;;12.13;2.33;;;3.80;99.90;;;;;;5039751;28;20462;-62
2022/02/05 08:44:48;;;;;;;13.47;2.67;;;3.80;99.90;;;;;;5036846;28;20467;-61
2022/02/05 08:47:16;;;;;;;9.53;1.93;;;3.90;99.90;;;;;;5036607;28;20469;-60
2022/02/05 08:49:44;;;;;;;8.93;2.00;;;3.90;99.90;;;;;;5038516;28;21014;-61
2022/02/05 08:52:12;;;;;;;13.03;2.73;;;4.10;99.90;;;;;;5047185;28;20462;-62
2022/02/05 08:54:42;;;;;;;11.90;2.60;;;4.10;99.90;;;;;;5038082;28;20461;-62
2022/02/05 08:57:12;;;;;;;12.00;2.00;;;4.10;99.90;;;;;;5031106;28;20465;-62
2022/02/05 08:59:50;;;;;;;9.83;1.97;;;4.20;99.90;;;;;;5037986;28;20465;-62
2022/02/05 09:02:19;;;;;;;11.67;2.23;;;4.30;99.90;;;;;;5030992;28;20550;-62
2022/02/05 09:04:54;;;;;;;10.80;2.33;;;4.40;99.90;;;;;;5029694;28;20467;-61
2022/02/05 09:07:22;;;;;;;9.67;2.20;;;4.50;99.90;;;;;;5029213;28;20565;-62
2022/02/05 09:10:04;;;;;;;10.93;2.30;;;4.80;99.90;;;;;;5026437;28;20477;-62
2022/02/05 09:12:55;;;;;;;12.43;2.60;;;4.90;99.90;;;;;;5034377;28;20485;-62
2022/02/05 09:15:21;;;;;;;9.73;2.23;;;4.90;99.90;;;;;;5038600;28;20539;-62
2022/02/05 09:17:50;;;;;;;10.10;2.10;;;5.00;99.90;;;;;;5049330;28;20475;-62
2022/02/05 09:20:18;;;;;;;9.60;1.83;;;5.10;99.90;;;;;;5041472;28;20837;-61
2022/02/05 09:22:46;;;;;;;11.93;2.97;;;5.20;99.90;;;;;;5041637;28;21038;-62
2022/02/05 09:25:16;;;;;;;10.80;2.30;;;5.30;99.90;;;;;;5041600;28;20508;-62
2022/02/05 09:27:45;;;;;;;9.20;2.30;;;5.30;99.90;;;;;;5037121;28;20521;-62
2022/02/05 09:30:16;;;;;;;12.83;2.57;;;5.30;99.90;;;;;;5044783;28;20504;-62
2022/02/05 09:32:44;;;;;;;8.57;2.30;;;5.30;99.90;;;;;;5038720;28;20478;-62
2022/02/05 09:35:13;;;;;;;10.43;2.23;;;5.20;99.90;;;;;;5044902;28;20477;-60
2022/02/05 09:37:41;;;;;;;10.97;2.10;;;5.20;99.90;;;;;;5048757;28;20466;-60
2022/02/05 09:40:09;;;;;;;9.80;2.03;;;5.20;99.90;;;;;;5040756;28;20457;-59
2022/02/05 09:42:45;;;;;;;11.23;2.10;;;5.20;99.90;;;;;;5049152;28;20582;-59
2022/02/05 09:45:14;;;;;;;7.43;1.73;;;5.20;99.90;;;;;;5048632;28;20262;-59
2022/02/05 09:47:47;;;;;;;12.77;1.90;;;5.20;99.90;;;;;;5040989;28;21002;-59
2022/02/05 09:50:15;;;;;;;10.37;2.13;;;5.40;99.90;;;;;;5041506;28;20235;-59
2022/02/05 09:52:49;;;;;;;11.30;2.17;;;5.50;99.90;;;;;;5032387;28;20772;-62
2022/02/05 09:55:17;;;;;;;12.00;2.07;;;5.70;99.90;;;;;;5049261;28;20469;-62
2022/02/05 09:57:47;;;;;;;11.70;2.10;;;5.80;99.90;;;;;;5052254;28;20463;-62
2022/02/05 10:00:17;;;;;;;11.43;1.90;;;5.90;99.90;;;;;;5052633;28;20488;-62
2022/02/05 10:02:54;;;;;;;11.30;2.20;;;6.10;99.90;;;;;;5050959;28;20281;-62
2022/02/05 10:05:29;;;;;;;8.60;1.70;;;6.00;99.90;;;;;;5052170;28;20559;-62
2022/02/05 10:08:02;;;;;;;8.83;1.93;;;6.00;99.90;;;;;;5045699;28;20266;-60
2022/02/05 10:10:38;;;;;;;7.90;1.97;;;5.90;99.90;;;;;;5041971;28;20476;-60
2022/02/05 10:13:09;;;;;;;10.77;2.33;;;6.10;99.90;;;;;;5050517;28;20535;-60
2022/02/05 10:15:39;;;;;;;12.73;2.67;;;6.10;99.90;;;;;;5048113;28;20266;-60
2022/02/05 10:18:08;;;;;;;8.63;2.27;;;6.20;99.90;;;;;;5048486;28;20241;-60
2022/02/05 10:20:41;;;;;;;10.13;2.03;;;6.40;99.90;;;;;;5035325;28;20243;-60
2022/02/05 10:23:11;;;;;;;8.77;2.00;;;6.50;99.90;;;;;;5040590;28;20290;-60
2022/02/05 10:25:39;;;;;;;11.23;2.43;;;6.50;99.90;;;;;;5043811;28;20227;-60
2022/02/05 10:28:13;;;;;;;11.10;2.27;;;6.40;99.90;;;;;;5043947;28;20236;-60
2022/02/05 10:30:45;;;;;;;12.70;2.13;;;6.30;99.90;;;;;;5040001;28;20770;-59
2022/02/05 10:33:19;;;;;;;10.10;2.43;;;6.20;99.90;;;;;;5041765;28;20239;-60
2022/02/05 10:35:52;;;;;;;11.13;2.40;;;6.40;99.90;;;;;;5045074;28;20289;-60
2022/02/05 10:43:59;;;;;;;10.20;2.40;;;6.30;99.90;;;;;;5044227;28;20239;-60
2022/02/05 10:46:36;;;;;;;15.33;2.87;;;6.40;99.90;;;;;;5041592;28;20261;-59
2022/02/05 10:49:04;;;;;;;16.87;2.57;;;6.40;99.90;;;;;;5049865;28;20701;-60
2022/02/05 10:51:43;;;;;;;13.63;2.43;;;6.40;99.90;;;;;;5040401;28;20240;-59
2022/02/05 10:54:24;;;;;;;13.77;2.30;;;6.50;99.90;;;;;;5039765;28;20577;-59
2022/02/05 10:57:05;;;;;;;12.83;2.27;;;6.50;99.90;;;;;;5031492;28;20251;-60
2022/02/05 11:00:10;;;;;;;8.37;2.50;;;6.40;99.90;;;;;;5042331;28;20262;-59
2022/02/05 11:05:35;;;;;;;12.73;2.20;;;6.60;99.90;;;;;;5051131;28;20236;-59
2022/02/05 11:08:04;;;;;;;12.30;2.33;;;6.60;99.90;;;;;;5043604;28;20264;-60
2022/02/05 11:13:26;;;;;;;9.33;2.07;;;6.70;99.90;;;;;;5045523;28;20271;-60
2022/02/05 11:18:55;;;;;;;12.27;2.33;;;6.60;99.90;;;;;;5040350;28;20800;-58
2022/02/05 11:21:44;;;;;;;15.63;2.37;;;6.60;99.90;;;;;;5036161;28;20271;-58
2022/02/05 11:24:15;;;;;;;12.10;1.83;;;6.60;99.90;;;;;;5030390;28;20723;-59
2022/02/05 11:26:44;;;;;;;13.47;2.13;;;6.70;99.90;;;;;;5030139;28;20327;-59
2022/02/05 11:29:31;;;;;;;11.63;2.13;;;6.50;99.90;;;;;;5035292;28;20248;-59
2022/02/05 11:32:24;;;;;;;9.73;2.53;;;6.40;99.90;;;;;;5030325;28;20339;-59
2022/02/05 11:35:06;;;;;;;12.40;2.67;;;6.30;99.90;;;;;;5037781;28;20254;-60
2022/02/05 11:37:53;;;;;;;15.23;2.53;;;6.50;99.90;;;;;;5033470;28;20271;-59
2022/02/05 11:40:46;;;;;;;14.57;1.90;;;6.70;99.90;;;;;;5039163;28;20253;-58
2022/02/05 11:43:20;;;;;;;11.67;2.13;;;6.70;99.90;;;;;;5015842;28;20272;-60
2022/02/05 11:46:16;;;;;;;10.50;1.87;;;6.80;99.90;;;;;;5031438;28;20297;-61
2022/02/05 11:48:56;;;;;;;11.37;2.33;;;6.90;99.90;;;;;;5036443;28;20722;-62
2022/02/05 11:51:26;;;;;;;11.17;2.10;;;7.10;99.90;;;;;;5039272;28;20236;-62
2022/02/05 11:54:16;;;;;;;10.60;2.10;;;7.20;99.90;;;;;;5034984;28;20259;-62
2022/02/05 11:56:52;;;;;;;12.73;2.40;;;7.20;99.90;;;;;;5039672;28;20326;-61
2022/02/05 11:59:23;;;;;;;8.70;2.30;;;7.00;99.90;;;;;;5055058;28;20296;-62
2022/02/05 12:02:11;;;;;;;9.83;2.23;;;6.90;99.90;;;;;;5059886;28;20251;-61
2022/02/05 12:04:41;;;;;;;8.13;2.10;;;6.80;99.90;;;;;;5053410;28;20266;-62
2022/02/05 12:07:11;;;;;;;10.00;2.27;;;6.80;99.90;;;;;;5053920;28;20710;-62
2022/02/05 12:09:57;;;;;;;12.90;2.20;;;6.60;99.90;;;;;;5058060;28;20285;-62
2022/02/05 12:12:40;;;;;;;12.17;2.50;;;6.50;99.90;;;;;;5057590;28;20604;-62
2022/02/05 12:15:25;;;;;;;9.70;2.27;;;6.50;99.90;;;;;;5050921;28;20294;-61
2022/02/05 12:18:08;;;;;;;12.77;2.47;;;6.60;99.90;;;;;;5058042;28;20239;-62
2022/02/05 12:21:12;;;;;;;11.57;2.33;;;6.60;99.90;;;;;;5047744;28;20243;-62
2022/02/05 12:27:02;;;;;;;11.43;2.67;;;6.60;99.90;;;;;;4962525;28;20250;-58
2022/02/05 12:29:33;;;;;;;9.53;2.47;;;6.60;99.90;;;;;;5037670;28;20235;-59
2022/02/05 12:32:02;;;;;;;8.53;2.50;;;6.60;99.90;;;;;;5042064;28;20660;-60
2022/02/05 12:34:35;;;;;;;12.10;3.07;;;6.70;99.90;;;;;;5041426;28;20244;-59
2022/02/05 12:37:06;;;;;;;12.53;3.77;;;6.60;99.90;;;;;;5042485;28;20352;-60
2022/02/05 12:39:35;;;;;;;11.23;2.80;;;6.60;99.90;;;;;;5041396;28;20570;-60
2022/02/05 12:42:14;;;;;;;12.43;2.63;;;6.60;99.90;;;;;;5042750;28;20478;-60
2022/02/05 12:44:45;;;;;;;10.63;2.80;;;6.60;99.90;;;;;;5043643;28;20239;-58
2022/02/05 12:47:23;;;;;;;14.13;3.43;;;6.50;99.90;;;;;;5039873;28;20774;-58
2022/02/05 12:49:56;;;;;;;9.70;2.70;;;6.40;99.90;;;;;;5040871;28;20239;-60
2022/02/05 12:52:30;;;;;;;13.67;2.80;;;6.50;99.90;;;;;;5042618;28;20240;-58
2022/02/05 12:55:01;;;;;;;12.73;3.10;;;6.50;99.90;;;;;;5043656;28;20327;-59
2022/02/05 12:57:32;;;;;;;12.00;2.83;;;6.60;99.90;;;;;;5041871;28;20258;-59
2022/02/05 13:00:06;;;;;;;11.63;2.67;;;6.60;99.90;;;;;;5044563;28;20232;-59
2022/02/05 13:02:34;;;;;;;10.07;3.00;;;6.70;99.90;;;;;;5047265;28;20667;-60
2022/02/05 13:05:02;;;;;;;12.37;2.60;;;6.60;99.90;;;;;;5046818;28;20732;-59
2022/02/05 13:07:34;;;;;;;10.33;2.13;;;6.70;99.90;;;;;;5045384;28;20988;-58
2022/02/05 13:10:06;;;;;;;8.63;2.30;;;6.70;99.90;;;;;;5044362;28;20243;-59
2022/02/05 13:12:37;;;;;;;10.50;2.60;;;6.80;99.90;;;;;;5048080;28;20236;-59
2022/02/05 13:15:20;;;;;;;14.10;2.80;;;6.80;99.90;;;;;;5046202;28;20252;-60
2022/02/05 13:18:05;;;;;;;8.57;2.03;;;6.80;99.90;;;;;;5045843;28;20238;-60
2022/02/05 13:26:22;;;;;;;11.37;2.80;;;7.00;99.90;;;;;;5037077;28;20254;-60
2022/02/05 13:29:18;;;;;;;8.80;2.43;;;7.00;99.90;;;;;;5032926;28;20263;-59
2022/02/05 13:34:36;;;;;;;11.23;2.53;;;7.10;99.90;;;;;;5041933;28;20785;-62
2022/02/05 13:37:14;;;;;;;10.23;2.33;;;7.20;99.90;;;;;;5038829;28;20651;-62
2022/02/05 13:39:56;;;;;;;7.77;2.17;;;7.20;99.90;;;;;;5035339;28;20601;-62
2022/02/05 13:42:27;;;;;;;8.97;2.10;;;7.20;99.90;;;;;;5034479;28;20713;-61
2022/02/05 13:44:59;;;;;;;5.93;1.90;;;7.10;99.90;;;;;;5034301;28;20286;-62
2022/02/05 13:47:31;;;;;;;7.33;2.17;;;7.10;99.90;;;;;;5034218;28;20240;-62
2022/02/05 13:50:03;;;;;;;7.73;1.93;;;7.20;99.90;;;;;;5033713;28;20243;-62
2022/02/05 13:52:37;;;;;;;10.23;2.70;;;7.10;99.90;;;;;;5033901;28;20240;-61
2022/02/05 13:55:28;;;;;;;9.93;2.50;;;7.10;99.90;;;;;;5038470;28;20701;-62
2022/02/05 13:58:00;;;;;;;9.37;2.20;;;6.80;99.90;;;;;;5034500;28;20787;-59
2022/02/05 14:00:43;;;;;;;9.50;2.47;;;6.70;99.90;;;;;;5034031;28;20232;-60
2022/02/05 14:03:13;;;;;;;8.60;2.40;;;6.60;99.90;;;;;;5040133;28;20354;-58
2022/02/05 14:06:02;;;;;;;13.37;2.93;;;6.50;99.90;;;;;;5031573;28;20279;-59
2022/02/05 14:08:32;;;;;;;12.97;3.33;;;6.40;99.90;;;;;;5036729;28;20777;-59
2022/02/05 14:11:05;;;;;;;14.30;3.37;;;6.40;99.90;;;;;;5035629;28;20870;-60
2022/02/05 14:13:34;;;;;;;7.93;2.60;;;6.40;99.90;;;;;;5035926;28;20268;-59
2022/02/05 14:16:04;;;;;;;12.97;3.17;;;6.40;99.90;;;;;;5037440;28;20280;-60
2022/02/05 14:18:35;;;;;;;12.10;3.03;;;6.40;99.90;;;;;;5037056;28;20236;-60
2022/02/05 14:21:04;;;;;;;13.37;3.00;;;6.40;99.90;;;;;;5033461;28;20282;-62
2022/02/05 14:23:34;;;;;;;7.63;2.30;;;6.40;99.90;;;;;;5035072;28;20334;-60
2022/02/05 14:26:10;;;;;;;9.30;2.60;;;6.40;99.90;;;;;;5036169;28;20798;-60
2022/02/05 14:28:45;;;;;;;7.93;2.33;;;6.50;99.90;;;;;;5032707;28;20296;-60
2022/02/05 14:31:19;;;;;;;8.57;2.27;;;6.50;99.90;;;;;;5034334;28;20298;-60
2022/02/05 14:34:06;;;;;;;10.57;2.17;;;6.50;99.90;;;;;;5035348;28;20245;-59
2022/02/05 14:36:47;;;;;;;9.77;2.87;;;6.50;99.90;;;;;;5033090;28;20298;-60
2022/02/05 14:42:06;;;;;;;8.40;2.30;;;6.50;99.90;;;;;;5040592;28;20247;-60
2022/02/05 14:44:34;;;;;;;8.33;2.20;;;6.50;99.90;;;;;;5037795;28;20774;-60
2022/02/05 14:47:04;;;;;;;11.20;2.50;;;6.50;99.90;;;;;;5040437;28;20240;-60
2022/02/05 14:49:32;;;;;;;7.73;2.07;;;6.50;99.90;;;;;;5034143;28;20691;-60
2022/02/05 14:52:02;;;;;;;11.33;2.30;;;6.50;99.90;;;;;;5033276;28;20252;-60
2022/02/05 14:54:30;;;;;;;6.70;2.83;;;6.50;99.90;;;;;;5033070;28;20754;-60
2022/02/05 14:56:59;;;;;;;10.27;2.67;;;6.40;99.90;;;;;;5033008;28;20251;-60
2022/02/05 14:59:31;;;;;;;7.33;2.37;;;6.40;99.90;;;;;;5037022;28;20232;-60
2022/02/05 15:01:59;;;;;;;18.33;2.70;;;6.40;99.90;;;;;;5039668;28;20240;-60
2022/02/05 15:04:27;;;;;;;9.97;2.17;;;6.50;99.90;;;;;;5037229;28;20236;-59
2022/02/05 15:06:55;;;;;;;8.67;2.33;;;6.50;99.90;;;;;;5036120;28;20713;-60
2022/02/05 15:09:23;;;;;;;6.83;2.03;;;6.40;99.90;;;;;;5033691;28;20260;-59
2022/02/05 15:11:52;;;;;;;8.57;2.20;;;6.40;99.90;;;;;;5039446;28;20249;-60
2022/02/05 15:14:20;;;;;;;5.93;2.13;;;6.40;99.90;;;;;;5032742;28;20240;-60
2022/02/05 15:16:49;;;;;;;16.57;2.43;;;6.40;99.90;;;;;;5032533;28;20632;-60